Historyczne dane pomiarowe

Dodano dane terminowe – wersja testowa.

Dane z okresu 1951-2019

Wersja bazy: 1.34 [2019-03-16, lista zmian], aktualizacja planowana na 2019-04-15

Dane meteo z obszaru Polski uzyskane na podstawie danych udostępnionych przez Instytut Meteorologii i Gospodarki Wodnej – Państwowy Instytut Badawczy.

 

Wybierz Datę:    

       

TemperaturaWilgotnośćWiatrCiśnienieOpadyŚniegCzas trwania zjawisk
 Stacja t tx tn tng RH VA  wxwx mslp ppp RRR   cm mm wxwxwxwxwxwxwx
1999-08-14 15.9 20.5 8.3 4.4-- 4.7 1.0---- 0.0------------
1999-08-13 14.5 20.5 8.3 6.4-- 4.3 1.0---- 0.0------------
1999-08-12 17.2 20.0 14.7 14.4-- 6.7 1.7---- 0.0------------
1999-08-11 20.0 24.5 16.2 14.9-- 5.7 1.0---- 5.8------------
1999-08-10 21.0 28.6 13.7 12.9-- 5.3 1.3---- 0.6------------
1999-08-09 22.0 32.0 13.7 11.5-- 3.7 1.3---- 3.7------------
1999-08-08 23.3 30.1 15.2 14.4-- 4.3 0.3---- 0.0------------
1999-08-07 21.3 29.6 10.2 8.4-- 4.0 1.0---- 0.0------------
1999-08-06 20.1 27.1 14.7 11.5-- 6.3 0.7---- 0.0------------
1999-08-05 18.1 26.6 8.8 6.9-- 4.0 0.3---- 0.7------------
1999-08-04 18.0 25.6 7.8 6.4-- 3.3 0.7---- 0.0------------
1999-08-03 17.7 24.0 9.7 9.0-- 5.0 0.3---- 0.0------------
1999-08-02 17.2 21.0 9.7 7.4-- 7.3 0.0---- 0.5------------
1999-08-01 18.1 24.6 11.2 10.0-- 7.0 0.0---- 6.5------------
1999-07-31 18.1 25.7 10.6 7.5-- 6.0 1.0---- 0.0------------
1999-07-30 18.4 25.5 10.6 7.9-- 4.0 1.0---- 0.0------------
1999-07-29 18.1 24.4 10.7 7.9-- 3.7 1.7---- 0.0------------
1999-07-28 19.1 25.3 15.0 14.4-- 6.0 1.3---- 0.0------------
1999-07-27 19.9 24.6 16.4 15.5-- 7.0 1.3---- 0.0------------
1999-07-26 21.0 27.7 12.6 10.6-- 5.3 1.3---- 0.0------------
1999-07-25 20.0 25.0 12.5 11.2-- 4.3 0.0---- 0.0------------
1999-07-24 17.0 23.0 11.1 9.0-- 7.3 1.0---- 0.0------------
1999-07-23 15.6 20.0 13.6 12.4-- 7.3 1.0---- 3.4------------
1999-07-22 20.9 24.6 18.0 17.4-- 7.0 1.0---- 6.5------------
1999-07-21 22.5 29.1 14.5 13.4-- 5.3 0.7---- 0.0------------
1999-07-20 22.5 29.6 12.9 10.2-- 4.0 0.7---- 0.0------------
1999-07-19 19.9 28.3 10.3 8.4-- 4.3 0.7---- 0.0------------
1999-07-18 18.7 25.9 9.6 7.4-- 4.0 0.0---- 0.0------------
1999-07-17 18.8 22.5 17.0 11.0-- 6.0 0.7---- 0.0------------
1999-07-16 16.3 21.5 10.6 9.0-- 6.0 2.0---- 0.0------------
1999-07-15 17.7 21.4 16.0 12.0-- 6.0 2.7---- 0.0------------
1999-07-14 21.2 27.1 17.0 16.1-- 6.0 1.0---- 4.0------------
1999-07-13 19.9 25.3 16.0 14.3-- 6.7 0.0---- 2.0------------
1999-07-12 21.7 27.1 15.4 12.5-- 4.7 2.0---- 0.3------------
1999-07-11 20.7 24.4 17.4 16.1-- 5.7 2.0---- 0.6------------
1999-07-10 20.4 24.5 17.5 16.5-- 7.0 2.3---- 0.0------------
1999-07-09 20.4 23.5 17.6 14.3-- 7.3 0.7---- 0.0------------
1999-07-08 19.3 23.0 17.5 13.5-- 7.3 2.0---- 7.8------------
1999-07-07 22.4 27.1 18.4 18.3-- 6.7 2.3---- 21.8------------
1999-07-06 24.4 32.6 14.8 12.5-- 3.7 0.7---- 0.0------------
1999-07-05 23.4 32.0 12.6 11.0-- 3.0 0.3---- 0.0------------
1999-07-04 22.4 30.1 11.6 9.5-- 3.7 0.3---- 0.0------------
1999-07-03 21.7 26.5 15.5 13.9-- 3.3 1.3---- 0.0------------
1999-07-02 20.8 25.0 17.0 15.9-- 4.3 1.3---- 0.4------------
1999-07-01 20.6 26.6 12.1 9.0-- 4.7 0.7---- 0.0------------
1999-06-30 20.1 25.6 13.1 10.4-- 4.0 0.3---- 0.0------------
1999-06-29 20.1 25.0 13.7 11.0-- 4.0 1.7---- 0.0------------
1999-06-28 20.1 28.1 11.6 9.0-- 3.7 0.7---- 0.0------------
1999-06-27 18.7 26.3 9.6 7.5-- 1.7 1.3---- 0.0------------
1999-06-26 15.4 23.5 5.7 4.4-- 4.0 0.0---- 0.0------------
1999-06-25 13.3 19.5 5.9 3.3-- 5.3 1.0---- 0.0------------
1999-06-24 12.2 14.4 10.3 9.6-- 7.7 1.0---- 0.0------------
1999-06-23 10.0 11.9 8.3 7.9-- 8.0 4.3---- 3.7------------
1999-06-22 11.5 17.0 8.5 7.9-- 8.0 4.0---- 36.4------------
1999-06-21 18.5 23.6 16.5 16.3-- 7.7 0.7---- 22.5------------
1999-06-20 18.5 22.0 15.5 14.9-- 8.0 0.7---- 6.3------------
1999-06-19 17.1 20.8 14.4 14.3-- 8.0 2.0---- 0.0------------
1999-06-18 18.8 21.4 17.2 16.5-- 8.0 1.0---- 8.5------------
1999-06-17 18.9 22.5 17.0 16.4-- 8.0 1.3---- 8.2------------
1999-06-16 18.1 21.0 16.0 15.9-- 8.0 1.3---- 17.8------------
356.4 ms

 

Źródłem pochodzenia danych jest Instytut Meteorologii i Gospodarki Wodnej – Państwowy Instytut Badawczy. Dane Instytutu Meteorologii i Gospodarki Wodnej – Państwowego Instytutu Badawczego zostały przetworzone.

Dane źródłowe można odnaleźć na stronie https://dane.imgw.pl